Αρχική σελίδα
METAR-TAF:

METAR-TAF

Αεροδρόμια :

Τεχεράνη, Ιράν

γεωγραφικό πλάτος: 35-41N, γεωγραφικό μήκος: 051-21E, υψόμετρο: 1204 μ

Παρών καιρός

Η αναφορά έγινε 2 ώρες και 2 λεπτά πριν, στις 20:30 UTC
Άνεμος 6 kt από Β/BΔ
Θερμοκρασία 23°C
Υγρασία 27%
Πίεση 1017 hPa
Ορατότητα 10 χλμ και άνω
Δεν υπάρχουν νέφη με βάση κάτω από τα 1500 μ. και δεν υπάρχουν νέφη σωρειτομελανίτες.

METAR: OIII 252030Z 34006KT CAVOK 23/03 Q1017 A3004

Χρόνος: 02:02 (22:32 UTC)

Πρόγνωση Καιρού

Η αναφορά έγινε 5 ώρες και 2 λεπτά πριν, στις 17:30 UTC
Η πρόγνωση ισχύει από τις 25 στις 18 UTC έως τις 26 στις 24 UTC
Άνεμος 6 kt από Ν/ΝΔ
Ορατότητα 10 χλμ και άνω
Δεν υπάρχουν νέφη με βάση κάτω από τα 1500 μ. και δεν υπάρχουν νέφη σωρειτομελανίτες.

TAF: OIII 251730Z 2518/2624 21003MPS CAVOK

Μετεωρολογικές αναφορές και προγνώσεις για περισσότερα από 4000 αεροδρόμια (δελτία METAR και TAF).

Οι διαθέσιμοι σταθμοί απεικονίζονται στο χάρτη με κίτρινες και κόκκινες κουκκίδες.

Μετακινήστε το ποντίκι πάνω από τις κουκκίδες για να δείτε το όνομα του σταθμού.

Στη συνέχεια, κάντε κλικ για να δείτε τις μετεωρολογικές αναφορές και τις προγνώσεις καιρού.

Για να αλλάξετε το χάρτη: κάντε κλικ στα πράσινα κουμπιά με τον μαύρο σταυρό για να ζουμάρετε, στο πράσινο κουμπί με την παύλα για να αφαιρέσετε το ζουμ ή στα πράσινα βέλη για να αντιπαραβάλλετε χάρτες.


METAR-TAF: